sensor_id;sensor_type;location;lat;lon;timestamp;noise_LAeq;noise_LA_min;noise_LA_max;noise_LA01;noise_LA95
48148;Laerm;29352;48.708;9.290;2022-09-09T00:04:41;52.27;50.13;64.60;;
48148;Laerm;29352;48.708;9.290;2022-09-09T00:07:27;52.11;50.13;67.29;;
48148;Laerm;29352;48.708;9.290;2022-09-09T00:10:28;52.21;50.53;72.95;;
48148;Laerm;29352;48.708;9.290;2022-09-09T00:13:17;52.69;50.43;76.31;;
48148;Laerm;29352;48.708;9.290;2022-09-09T00:19:05;53.70;50.53;59.58;;
48148;Laerm;29352;48.708;9.290;2022-09-09T00:21:39;52.77;50.33;59.14;;
48148;Laerm;29352;48.708;9.290;2022-09-09T00:24:24;52.59;49.92;57.18;;
48148;Laerm;29352;48.708;9.290;2022-09-09T00:27:07;52.81;50.53;60.98;;
48148;Laerm;29352;48.708;9.290;2022-09-09T00:29:53;53.17;50.43;68.78;;
48148;Laerm;29352;48.708;9.290;2022-09-09T00:32:21;53.27;50.43;59.89;;
48148;Laerm;29352;48.708;9.290;2022-09-09T00:37:37;53.33;50.03;58.42;;
48148;Laerm;29352;48.708;9.290;2022-09-09T00:40:32;53.38;50.71;58.21;;
48148;Laerm;29352;48.708;9.290;2022-09-09T00:43:38;53.74;50.98;60.19;;
48148;Laerm;29352;48.708;9.290;2022-09-09T00:52:25;53.17;50.23;63.32;;
48148;Laerm;29352;48.708;9.290;2022-09-09T00:57:52;52.80;49.92;64.31;;
48148;Laerm;29352;48.708;9.290;2022-09-09T01:00:22;52.89;50.62;65.72;;
48148;Laerm;29352;48.708;9.290;2022-09-09T01:03:00;53.07;50.89;63.50;;
48148;Laerm;29352;48.708;9.290;2022-09-09T01:11:51;52.57;50.23;57.08;;
48148;Laerm;29352;48.708;9.290;2022-09-09T01:17:33;52.94;50.53;57.50;;
48148;Laerm;29352;48.708;9.290;2022-09-09T01:20:05;53.25;50.71;60.33;;
48148;Laerm;29352;48.708;9.290;2022-09-09T01:26:12;53.39;50.71;60.09;;
48148;Laerm;29352;48.708;9.290;2022-09-09T01:28:50;53.24;50.89;58.37;;
48148;Laerm;29352;48.708;9.290;2022-09-09T01:31:29;52.99;50.71;59.91;;
48148;Laerm;29352;48.708;9.290;2022-09-09T01:33:56;52.85;50.89;59.52;;
48148;Laerm;29352;48.708;9.290;2022-09-09T01:36:34;52.72;50.13;62.84;;
48148;Laerm;29352;48.708;9.290;2022-09-09T01:39:03;52.58;50.03;57.40;;
48148;Laerm;29352;48.708;9.290;2022-09-09T01:41:29;52.62;50.33;56.13;;
48148;Laerm;29352;48.708;9.290;2022-09-09T01:43:56;52.72;50.13;59.71;;
48148;Laerm;29352;48.708;9.290;2022-09-09T01:46:24;52.67;50.53;68.10;;
48148;Laerm;29352;48.708;9.290;2022-09-09T01:48:53;52.85;50.23;58.42;;
48148;Laerm;29352;48.708;9.290;2022-09-09T01:51:20;52.69;50.43;58.12;;
48148;Laerm;29352;48.708;9.290;2022-09-09T01:53:46;52.83;50.71;57.98;;
48148;Laerm;29352;48.708;9.290;2022-09-09T01:59:45;52.69;50.03;57.68;;
48148;Laerm;29352;48.708;9.290;2022-09-09T02:02:17;52.54;50.23;62.58;;
48148;Laerm;29352;48.708;9.290;2022-09-09T02:04:48;52.37;50.13;60.18;;
48148;Laerm;29352;48.708;9.290;2022-09-09T02:07:40;52.70;50.33;66.26;;
48148;Laerm;29352;48.708;9.290;2022-09-09T02:10:32;52.90;50.23;65.64;;
48148;Laerm;29352;48.708;9.290;2022-09-09T02:13:10;52.86;50.13;63.86;;
48148;Laerm;29352;48.708;9.290;2022-09-09T02:16:01;52.90;50.43;63.30;;
48148;Laerm;29352;48.708;9.290;2022-09-09T02:18:42;52.81;50.96;60.08;;
48148;Laerm;29352;48.708;9.290;2022-09-09T02:21:14;53.02;50.71;63.26;;
48148;Laerm;29352;48.708;9.290;2022-09-09T02:23:44;52.84;50.33;64.83;;
48148;Laerm;29352;48.708;9.290;2022-09-09T02:26:14;53.35;50.33;68.36;;
48148;Laerm;29352;48.708;9.290;2022-09-09T02:28:49;53.51;50.53;66.57;;
48148;Laerm;29352;48.708;9.290;2022-09-09T02:31:20;52.95;50.03;67.40;;
48148;Laerm;29352;48.708;9.290;2022-09-09T02:33:55;52.94;50.53;68.52;;
48148;Laerm;29352;48.708;9.290;2022-09-09T02:36:27;52.88;50.33;63.62;;
48148;Laerm;29352;48.708;9.290;2022-09-09T02:38:56;53.02;49.92;66.56;;
48148;Laerm;29352;48.708;9.290;2022-09-09T02:41:34;52.98;50.13;63.74;;
48148;Laerm;29352;48.708;9.290;2022-09-09T02:44:00;53.06;50.23;68.00;;
48148;Laerm;29352;48.708;9.290;2022-09-09T02:52:08;52.54;49.58;66.94;;
48148;Laerm;29352;48.708;9.290;2022-09-09T02:54:38;52.34;49.34;62.60;;
48148;Laerm;29352;48.708;9.290;2022-09-09T02:57:13;52.23;49.46;62.19;;
48148;Laerm;29352;48.708;9.290;2022-09-09T02:59:44;52.27;49.58;66.10;;
48148;Laerm;29352;48.708;9.290;2022-09-09T03:02:10;52.25;49.46;65.77;;
48148;Laerm;29352;48.708;9.290;2022-09-09T03:04:38;52.33;49.08;68.34;;
48148;Laerm;29352;48.708;9.290;2022-09-09T03:07:04;52.57;47.52;67.51;;
48148;Laerm;29352;48.708;9.290;2022-09-09T03:09:30;52.41;49.35;67.11;;
48148;Laerm;29352;48.708;9.290;2022-09-09T03:11:56;52.00;49.08;59.18;;
48148;Laerm;29352;48.708;9.290;2022-09-09T03:14:23;52.13;49.21;60.06;;
48148;Laerm;29352;48.708;9.290;2022-09-09T03:16:52;52.22;48.95;60.66;;
48148;Laerm;29352;48.708;9.290;2022-09-09T03:19:18;52.24;49.08;60.46;;
48148;Laerm;29352;48.708;9.290;2022-09-09T03:21:47;52.57;49.81;62.38;;
48148;Laerm;29352;48.708;9.290;2022-09-09T03:24:13;52.66;50.13;62.11;;
48148;Laerm;29352;48.708;9.290;2022-09-09T03:26:40;52.64;49.34;61.47;;
48148;Laerm;29352;48.708;9.290;2022-09-09T03:29:07;52.94;49.46;67.17;;
48148;Laerm;29352;48.708;9.290;2022-09-09T03:31:34;52.73;49.46;65.14;;
48148;Laerm;29352;48.708;9.290;2022-09-09T03:34:01;52.93;49.92;67.94;;
48148;Laerm;29352;48.708;9.290;2022-09-09T03:36:27;53.35;49.58;66.02;;
48148;Laerm;29352;48.708;9.290;2022-09-09T03:38:53;53.17;49.81;64.29;;
48148;Laerm;29352;48.708;9.290;2022-09-09T03:41:24;53.09;49.70;64.25;;
48148;Laerm;29352;48.708;9.290;2022-09-09T03:43:51;53.18;50.62;64.03;;
48148;Laerm;29352;48.708;9.290;2022-09-09T03:46:18;53.13;50.62;63.12;;
48148;Laerm;29352;48.708;9.290;2022-09-09T03:48:44;52.85;50.23;67.62;;
48148;Laerm;29352;48.708;9.290;2022-09-09T03:51:10;52.36;50.03;66.77;;
48148;Laerm;29352;48.708;9.290;2022-09-09T03:53:36;52.37;49.70;62.08;;
48148;Laerm;29352;48.708;9.290;2022-09-09T03:56:04;52.63;50.33;61.22;;
48148;Laerm;29352;48.708;9.290;2022-09-09T03:58:34;52.35;50.03;68.45;;
48148;Laerm;29352;48.708;9.290;2022-09-09T04:01:05;51.85;50.03;59.80;;
48148;Laerm;29352;48.708;9.290;2022-09-09T04:03:31;51.80;50.13;65.49;;
48148;Laerm;29352;48.708;9.290;2022-09-09T04:06:00;52.06;50.33;65.24;;
48148;Laerm;29352;48.708;9.290;2022-09-09T04:08:27;52.03;50.45;63.69;;
48148;Laerm;29352;48.708;9.290;2022-09-09T04:10:54;52.07;50.53;58.85;;
48148;Laerm;29352;48.708;9.290;2022-09-09T04:13:24;52.07;50.62;54.58;;
48148;Laerm;29352;48.708;9.290;2022-09-09T04:15:53;52.20;50.80;62.53;;
48148;Laerm;29352;48.708;9.290;2022-09-09T04:18:20;52.42;50.71;64.17;;
48148;Laerm;29352;48.708;9.290;2022-09-09T04:20:47;52.43;50.80;63.80;;
48148;Laerm;29352;48.708;9.290;2022-09-09T04:23:13;52.36;51.14;61.51;;
48148;Laerm;29352;48.708;9.290;2022-09-09T04:25:45;52.48;50.80;61.41;;
48148;Laerm;29352;48.708;9.290;2022-09-09T04:28:13;52.57;50.89;59.65;;
48148;Laerm;29352;48.708;9.290;2022-09-09T04:30:39;52.76;50.71;68.78;;
48148;Laerm;29352;48.708;9.290;2022-09-09T04:33:05;52.87;51.22;64.48;;
48148;Laerm;29352;48.708;9.290;2022-09-09T04:35:32;52.96;50.98;63.07;;
48148;Laerm;29352;48.708;9.290;2022-09-09T04:37:58;53.31;50.98;63.91;;
48148;Laerm;29352;48.708;9.290;2022-09-09T04:40:24;53.04;50.62;68.82;;
48148;Laerm;29352;48.708;9.290;2022-09-09T04:42:51;52.87;50.43;66.62;;
48148;Laerm;29352;48.708;9.290;2022-09-09T04:45:17;52.80;51.06;64.45;;
48148;Laerm;29352;48.708;9.290;2022-09-09T04:47:43;52.66;50.98;63.49;;
48148;Laerm;29352;48.708;9.290;2022-09-09T04:50:09;52.57;51.11;59.67;;
48148;Laerm;29352;48.708;9.290;2022-09-09T04:52:35;52.65;51.06;60.66;;
48148;Laerm;29352;48.708;9.290;2022-09-09T04:55:01;52.67;50.98;64.56;;
48148;Laerm;29352;48.708;9.290;2022-09-09T04:57:27;52.49;51.06;60.30;;
48148;Laerm;29352;48.708;9.290;2022-09-09T04:59:54;52.52;51.14;59.43;;
48148;Laerm;29352;48.708;9.290;2022-09-09T05:02:19;52.50;51.22;61.39;;
48148;Laerm;29352;48.708;9.290;2022-09-09T05:04:45;52.47;51.06;56.45;;
48148;Laerm;29352;48.708;9.290;2022-09-09T05:07:10;52.53;50.98;60.60;;
48148;Laerm;29352;48.708;9.290;2022-09-09T05:09:36;52.64;51.14;58.74;;
48148;Laerm;29352;48.708;9.290;2022-09-09T05:12:01;52.71;51.14;65.34;;
48148;Laerm;29352;48.708;9.290;2022-09-09T05:14:28;52.69;51.30;63.22;;
48148;Laerm;29352;48.708;9.290;2022-09-09T05:16:55;52.57;51.22;56.25;;
48148;Laerm;29352;48.708;9.290;2022-09-09T05:19:21;52.46;51.14;56.95;;
48148;Laerm;29352;48.708;9.290;2022-09-09T05:21:47;52.44;51.14;60.08;;
48148;Laerm;29352;48.708;9.290;2022-09-09T05:24:13;52.41;51.14;56.55;;
48148;Laerm;29352;48.708;9.290;2022-09-09T05:26:38;52.61;51.46;57.36;;
48148;Laerm;29352;48.708;9.290;2022-09-09T05:29:03;52.78;51.38;55.14;;
48148;Laerm;29352;48.708;9.290;2022-09-09T05:31:30;52.93;51.89;54.16;;
48148;Laerm;29352;48.708;9.290;2022-09-09T05:33:56;53.01;51.89;54.19;;
48148;Laerm;29352;48.708;9.290;2022-09-09T05:36:22;53.01;51.68;53.99;;
48148;Laerm;29352;48.708;9.290;2022-09-09T05:38:49;52.99;51.82;54.11;;
48148;Laerm;29352;48.708;9.290;2022-09-09T05:41:16;53.01;51.82;54.07;;
48148;Laerm;29352;48.708;9.290;2022-09-09T05:43:43;53.08;52.03;54.65;;
48148;Laerm;29352;48.708;9.290;2022-09-09T05:46:21;53.16;52.03;54.23;;
48148;Laerm;29352;48.708;9.290;2022-09-09T05:48:49;53.18;52.09;54.19;;
48148;Laerm;29352;48.708;9.290;2022-09-09T05:51:24;53.23;52.22;54.23;;
48148;Laerm;29352;48.708;9.290;2022-09-09T05:53:51;53.27;52.03;54.27;;
48148;Laerm;29352;48.708;9.290;2022-09-09T05:56:26;53.28;52.16;54.31;;
48148;Laerm;29352;48.708;9.290;2022-09-09T05:58:54;53.10;51.96;54.58;;
48148;Laerm;29352;48.708;9.290;2022-09-09T06:01:28;53.04;51.96;54.45;;
48148;Laerm;29352;48.708;9.290;2022-09-09T06:03:55;53.00;51.61;54.07;;
48148;Laerm;29352;48.708;9.290;2022-09-09T06:06:27;52.99;51.82;54.58;;
48148;Laerm;29352;48.708;9.290;2022-09-09T06:08:57;52.99;51.89;56.05;;
48148;Laerm;29352;48.708;9.290;2022-09-09T06:11:31;52.96;51.53;54.07;;
48148;Laerm;29352;48.708;9.290;2022-09-09T06:13:57;53.00;51.96;54.76;;
48148;Laerm;29352;48.708;9.290;2022-09-09T06:16:26;53.00;51.46;54.03;;
48148;Laerm;29352;48.708;9.290;2022-09-09T06:18:57;53.00;51.89;54.19;;
48148;Laerm;29352;48.708;9.290;2022-09-09T06:21:49;52.98;51.75;55.27;;
48148;Laerm;29352;48.708;9.290;2022-09-09T06:24:15;52.99;51.82;56.33;;
48148;Laerm;29352;48.708;9.290;2022-09-09T06:26:42;52.98;51.53;56.57;;
48148;Laerm;29352;48.708;9.290;2022-09-09T06:29:08;52.97;51.75;56.15;;
48148;Laerm;29352;48.708;9.290;2022-09-09T06:31:36;52.98;51.82;55.04;;
48148;Laerm;29352;48.708;9.290;2022-09-09T06:34:06;52.97;51.82;56.35;;
48148;Laerm;29352;48.708;9.290;2022-09-09T06:36:35;52.97;51.46;53.99;;
48148;Laerm;29352;48.708;9.290;2022-09-09T06:39:03;52.99;51.82;53.99;;
48148;Laerm;29352;48.708;9.290;2022-09-09T06:41:32;53.02;51.75;54.11;;
48148;Laerm;29352;48.708;9.290;2022-09-09T06:43:59;52.99;51.82;54.07;;
48148;Laerm;29352;48.708;9.290;2022-09-09T06:46:28;52.98;51.82;54.07;;
48148;Laerm;29352;48.708;9.290;2022-09-09T06:48:56;52.97;51.61;54.07;;
48148;Laerm;29352;48.708;9.290;2022-09-09T06:51:25;52.97;51.75;53.94;;
48148;Laerm;29352;48.708;9.290;2022-09-09T06:53:54;52.98;51.68;54.19;;
48148;Laerm;29352;48.708;9.290;2022-09-09T06:56:32;52.98;51.61;54.04;;
48148;Laerm;29352;48.708;9.290;2022-09-09T06:59:02;52.99;51.96;54.07;;
48148;Laerm;29352;48.708;9.290;2022-09-09T07:01:34;53.08;51.96;54.03;;
48148;Laerm;29352;48.708;9.290;2022-09-09T07:04:02;53.14;52.09;54.03;;
48148;Laerm;29352;48.708;9.290;2022-09-09T07:06:33;53.20;52.03;54.27;;
48148;Laerm;29352;48.708;9.290;2022-09-09T07:09:12;53.49;52.29;54.51;;
48148;Laerm;29352;48.708;9.290;2022-09-09T07:11:44;53.51;52.35;54.51;;
48148;Laerm;29352;48.708;9.290;2022-09-09T07:14:11;53.50;52.29;54.51;;
48148;Laerm;29352;48.708;9.290;2022-09-09T07:16:44;53.47;52.29;55.98;;
48148;Laerm;29352;48.708;9.290;2022-09-09T07:19:12;53.50;52.35;56.02;;
48148;Laerm;29352;48.708;9.290;2022-09-09T07:21:38;53.43;52.29;59.24;;
48148;Laerm;29352;48.708;9.290;2022-09-09T07:24:06;53.40;52.09;54.31;;
48148;Laerm;29352;48.708;9.290;2022-09-09T07:26:33;53.38;52.29;54.31;;
48148;Laerm;29352;48.708;9.290;2022-09-09T07:28:59;53.32;52.24;54.27;;
48148;Laerm;29352;48.708;9.290;2022-09-09T07:31:32;53.30;52.09;54.51;;
48148;Laerm;29352;48.708;9.290;2022-09-09T07:34:01;53.31;52.09;54.23;;
48148;Laerm;29352;48.708;9.290;2022-09-09T07:36:34;53.32;52.03;54.47;;
48148;Laerm;29352;48.708;9.290;2022-09-09T07:39:08;53.37;52.22;54.39;;
48148;Laerm;29352;48.708;9.290;2022-09-09T07:41:39;53.38;52.29;54.27;;
48148;Laerm;29352;48.708;9.290;2022-09-09T07:44:18;53.33;52.22;54.31;;
48148;Laerm;29352;48.708;9.290;2022-09-09T07:46:46;53.33;52.09;54.31;;
48148;Laerm;29352;48.708;9.290;2022-09-09T07:49:13;53.46;52.47;54.43;;
48148;Laerm;29352;48.708;9.290;2022-09-09T07:51:43;53.48;52.16;54.62;;
48148;Laerm;29352;48.708;9.290;2022-09-09T07:54:13;53.46;52.22;54.69;;
48148;Laerm;29352;48.708;9.290;2022-09-09T07:56:41;53.45;52.29;54.54;;
48148;Laerm;29352;48.708;9.290;2022-09-09T07:59:08;53.45;52.29;57.30;;
48148;Laerm;29352;48.708;9.290;2022-09-09T08:01:50;53.34;52.03;54.27;;
48148;Laerm;29352;48.708;9.290;2022-09-09T08:04:22;53.28;52.09;54.23;;
48148;Laerm;29352;48.708;9.290;2022-09-09T08:07:00;53.30;52.03;54.51;;
48148;Laerm;29352;48.708;9.290;2022-09-09T08:09:27;53.30;52.16;54.39;;
48148;Laerm;29352;48.708;9.290;2022-09-09T08:11:58;53.25;52.16;54.23;;
48148;Laerm;29352;48.708;9.290;2022-09-09T08:14:24;53.17;51.96;54.27;;
48148;Laerm;29352;48.708;9.290;2022-09-09T08:16:50;53.21;52.09;54.15;;
48148;Laerm;29352;48.708;9.290;2022-09-09T08:19:16;53.18;52.03;54.27;;
48148;Laerm;29352;48.708;9.290;2022-09-09T08:21:44;53.20;51.89;54.27;;
48148;Laerm;29352;48.708;9.290;2022-09-09T08:24:12;53.28;52.03;54.27;;
48148;Laerm;29352;48.708;9.290;2022-09-09T08:26:43;53.36;52.35;54.43;;
48148;Laerm;29352;48.708;9.290;2022-09-09T08:29:12;53.28;52.09;54.39;;
48148;Laerm;29352;48.708;9.290;2022-09-09T08:34:08;53.08;51.89;54.11;;
48148;Laerm;29352;48.708;9.290;2022-09-09T08:36:42;53.19;52.03;54.23;;
48148;Laerm;29352;48.708;9.290;2022-09-09T08:39:11;53.28;52.16;54.47;;
48148;Laerm;29352;48.708;9.290;2022-09-09T08:55:54;53.36;52.22;54.39;;
48148;Laerm;29352;48.708;9.290;2022-09-09T08:58:29;53.40;52.29;54.54;;
48148;Laerm;29352;48.708;9.290;2022-09-09T09:04:19;53.17;52.09;54.20;;
48148;Laerm;29352;48.708;9.290;2022-09-09T09:12:44;53.21;52.03;54.23;;
48148;Laerm;29352;48.708;9.290;2022-09-09T09:15:25;53.39;52.09;54.54;;
48148;Laerm;29352;48.708;9.290;2022-09-09T09:17:51;53.44;52.41;54.52;;
48148;Laerm;29352;48.708;9.290;2022-09-09T09:20:31;53.40;52.22;54.35;;
48148;Laerm;29352;48.708;9.290;2022-09-09T09:23:04;53.40;52.35;54.51;;
48148;Laerm;29352;48.708;9.290;2022-09-09T09:25:40;53.47;52.35;54.54;;
48148;Laerm;29352;48.708;9.290;2022-09-09T09:28:30;53.42;52.22;59.70;;
48148;Laerm;29352;48.708;9.290;2022-09-09T09:31:06;53.36;52.35;54.35;;
48148;Laerm;29352;48.708;9.290;2022-09-09T09:33:47;53.21;51.96;57.95;;
48148;Laerm;29352;48.708;9.290;2022-09-09T09:36:16;53.29;52.09;55.01;;
48148;Laerm;29352;48.708;9.290;2022-09-09T09:38:58;53.21;52.09;54.19;;
48148;Laerm;29352;48.708;9.290;2022-09-09T09:41:31;53.19;52.09;54.07;;
48148;Laerm;29352;48.708;9.290;2022-09-09T09:43:58;53.07;52.03;54.15;;
48148;Laerm;29352;48.708;9.290;2022-09-09T09:46:26;53.03;51.96;53.99;;
48148;Laerm;29352;48.708;9.290;2022-09-09T09:49:03;53.01;51.68;54.03;;
48148;Laerm;29352;48.708;9.290;2022-09-09T09:51:33;53.36;52.16;54.43;;
48148;Laerm;29352;48.708;9.290;2022-09-09T09:54:15;53.43;52.35;54.47;;
48148;Laerm;29352;48.708;9.290;2022-09-09T09:56:45;53.19;51.82;59.69;;
48148;Laerm;29352;48.708;9.290;2022-09-09T09:59:34;53.07;51.82;59.92;;
48148;Laerm;29352;48.708;9.290;2022-09-09T10:02:23;52.97;51.30;56.25;;
48148;Laerm;29352;48.708;9.290;2022-09-09T10:05:04;52.77;51.46;54.23;;
48148;Laerm;29352;48.708;9.290;2022-09-09T10:07:30;52.84;51.53;54.11;;
48148;Laerm;29352;48.708;9.290;2022-09-09T10:09:59;52.99;51.68;54.03;;
48148;Laerm;29352;48.708;9.290;2022-09-09T10:12:50;53.21;51.96;54.31;;
48148;Laerm;29352;48.708;9.290;2022-09-09T10:18:39;52.89;51.61;53.94;;
48148;Laerm;29352;48.708;9.290;2022-09-09T10:21:42;53.25;52.09;54.54;;
48148;Laerm;29352;48.708;9.290;2022-09-09T10:24:39;53.42;52.22;54.51;;
48148;Laerm;29352;48.708;9.290;2022-09-09T10:27:15;53.27;52.03;54.47;;
48148;Laerm;29352;48.708;9.290;2022-09-09T10:30:21;53.14;51.82;54.35;;
48148;Laerm;29352;48.708;9.290;2022-09-09T10:33:09;53.20;51.96;54.23;;
48148;Laerm;29352;48.708;9.290;2022-09-09T10:36:19;53.22;52.03;54.39;;
48148;Laerm;29352;48.708;9.290;2022-09-09T10:42:06;53.40;52.35;54.51;;
48148;Laerm;29352;48.708;9.290;2022-09-09T10:45:13;53.43;52.22;54.39;;
48148;Laerm;29352;48.708;9.290;2022-09-09T10:50:49;53.06;51.89;54.54;;
48148;Laerm;29352;48.708;9.290;2022-09-09T10:53:35;53.04;51.61;54.19;;
48148;Laerm;29352;48.708;9.290;2022-09-09T10:56:14;53.26;52.03;54.19;;
48148;Laerm;29352;48.708;9.290;2022-09-09T10:59:05;53.17;52.16;54.23;;
48148;Laerm;29352;48.708;9.290;2022-09-09T11:01:52;53.11;52.03;54.27;;
48148;Laerm;29352;48.708;9.290;2022-09-09T11:04:47;53.25;52.09;54.27;;
48148;Laerm;29352;48.708;9.290;2022-09-09T11:07:36;53.48;52.09;54.54;;
48148;Laerm;29352;48.708;9.290;2022-09-09T11:12:51;52.93;51.53;54.15;;
48148;Laerm;29352;48.708;9.290;2022-09-09T11:15:28;53.10;51.96;54.07;;
48148;Laerm;29352;48.708;9.290;2022-09-09T11:18:03;53.15;51.96;54.27;;
48148;Laerm;29352;48.708;9.290;2022-09-09T11:20:30;53.01;51.96;53.94;;
48148;Laerm;29352;48.708;9.290;2022-09-09T11:23:14;52.99;51.96;54.15;;
48148;Laerm;29352;48.708;9.290;2022-09-09T11:25:53;52.99;51.89;53.99;;
48148;Laerm;29352;48.708;9.290;2022-09-09T11:36:52;53.32;51.82;60.55;;
48148;Laerm;29352;48.708;9.290;2022-09-09T11:42:23;53.74;52.09;67.11;;
48148;Laerm;29352;48.708;9.290;2022-09-09T11:44:51;55.76;52.09;68.40;;
48148;Laerm;29352;48.708;9.290;2022-09-09T11:47:29;53.27;51.96;60.71;;
48148;Laerm;29352;48.708;9.290;2022-09-09T11:52:47;53.15;52.03;56.05;;
48148;Laerm;29352;48.708;9.290;2022-09-09T11:55:32;53.37;52.16;54.47;;
48148;Laerm;29352;48.708;9.290;2022-09-09T12:00:44;53.21;51.96;54.15;;
48148;Laerm;29352;48.708;9.290;2022-09-09T12:03:45;53.15;51.75;54.07;;
48148;Laerm;29352;48.708;9.290;2022-09-09T12:06:25;53.19;52.03;54.54;;
48148;Laerm;29352;48.708;9.290;2022-09-09T12:11:52;53.10;51.96;54.11;;
48148;Laerm;29352;48.708;9.290;2022-09-09T12:17:24;53.20;52.03;54.62;;
48148;Laerm;29352;48.708;9.290;2022-09-09T12:20:29;53.14;52.03;54.15;;
48148;Laerm;29352;48.708;9.290;2022-09-09T12:23:20;53.13;51.68;54.19;;
48148;Laerm;29352;48.708;9.290;2022-09-09T12:26:13;53.32;52.22;54.34;;
48148;Laerm;29352;48.708;9.290;2022-09-09T12:29:14;53.42;52.16;62.71;;
48148;Laerm;29352;48.708;9.290;2022-09-09T12:32:11;53.50;52.47;54.47;;
48148;Laerm;29352;48.708;9.290;2022-09-09T12:34:46;53.53;52.22;54.62;;
48148;Laerm;29352;48.708;9.290;2022-09-09T12:37:40;53.53;52.53;54.47;;
48148;Laerm;29352;48.708;9.290;2022-09-09T12:40:32;53.43;52.03;54.51;;
48148;Laerm;29352;48.708;9.290;2022-09-09T12:43:14;53.37;52.16;54.54;;
48148;Laerm;29352;48.708;9.290;2022-09-09T12:45:42;53.34;52.03;54.35;;
48148;Laerm;29352;48.708;9.290;2022-09-09T12:48:12;53.34;51.82;54.35;;
48148;Laerm;29352;48.708;9.290;2022-09-09T12:50:49;53.37;52.09;54.39;;
48148;Laerm;29352;48.708;9.290;2022-09-09T12:53:30;53.26;52.03;54.27;;
48148;Laerm;29352;48.708;9.290;2022-09-09T12:56:04;53.14;52.03;54.07;;
48148;Laerm;29352;48.708;9.290;2022-09-09T12:58:33;53.03;51.82;53.99;;
48148;Laerm;29352;48.708;9.290;2022-09-09T13:01:02;52.99;51.96;54.03;;
48148;Laerm;29352;48.708;9.290;2022-09-09T13:03:32;52.99;51.89;54.15;;
48148;Laerm;29352;48.708;9.290;2022-09-09T13:06:20;53.00;51.82;53.99;;
48148;Laerm;29352;48.708;9.290;2022-09-09T13:08:49;52.99;51.94;53.94;;
48148;Laerm;29352;48.708;9.290;2022-09-09T13:11:24;53.00;51.89;54.03;;
48148;Laerm;29352;48.708;9.290;2022-09-09T13:13:56;53.02;51.75;54.03;;
48148;Laerm;29352;48.708;9.290;2022-09-09T13:16:29;53.01;51.96;54.03;;
48148;Laerm;29352;48.708;9.290;2022-09-09T13:19:00;53.03;51.89;53.94;;
48148;Laerm;29352;48.708;9.290;2022-09-09T13:21:35;53.09;51.96;54.03;;
48148;Laerm;29352;48.708;9.290;2022-09-09T13:24:05;53.08;51.96;54.11;;
48148;Laerm;29352;48.708;9.290;2022-09-09T13:26:34;53.08;51.75;54.11;;
48148;Laerm;29352;48.708;9.290;2022-09-09T13:29:20;53.11;51.89;54.07;;
48148;Laerm;29352;48.708;9.290;2022-09-09T13:31:46;53.11;51.96;54.11;;
48148;Laerm;29352;48.708;9.290;2022-09-09T13:34:31;53.12;51.89;54.19;;
48148;Laerm;29352;48.708;9.290;2022-09-09T13:37:07;53.26;52.09;54.31;;
48148;Laerm;29352;48.708;9.290;2022-09-09T13:39:52;53.38;52.29;54.31;;
48148;Laerm;29352;48.708;9.290;2022-09-09T13:42:40;53.38;52.22;58.45;;
48148;Laerm;29352;48.708;9.290;2022-09-09T13:45:20;53.36;51.96;56.95;;
48148;Laerm;29352;48.708;9.290;2022-09-09T13:47:46;53.39;52.22;62.00;;
48148;Laerm;29352;48.708;9.290;2022-09-09T13:50:29;53.34;52.16;54.31;;
48148;Laerm;29352;48.708;9.290;2022-09-09T13:52:58;53.30;52.22;54.23;;
48148;Laerm;29352;48.708;9.290;2022-09-09T13:55:29;53.32;52.16;54.31;;
48148;Laerm;29352;48.708;9.290;2022-09-09T13:58:02;53.30;52.16;54.42;;
48148;Laerm;29352;48.708;9.290;2022-09-09T14:00:34;53.26;52.09;54.15;;
48148;Laerm;29352;48.708;9.290;2022-09-09T14:03:00;53.26;51.96;54.23;;
48148;Laerm;29352;48.708;9.290;2022-09-09T14:05:30;53.27;52.19;54.35;;
48148;Laerm;29352;48.708;9.290;2022-09-09T14:07:58;53.32;52.22;54.27;;
48148;Laerm;29352;48.708;9.290;2022-09-09T14:10:23;53.28;52.22;54.47;;
48148;Laerm;29352;48.708;9.290;2022-09-09T14:12:48;53.22;52.09;54.27;;
48148;Laerm;29352;48.708;9.290;2022-09-09T14:15:14;53.24;52.09;54.27;;
48148;Laerm;29352;48.708;9.290;2022-09-09T14:17:40;53.25;52.03;54.65;;
48148;Laerm;29352;48.708;9.290;2022-09-09T14:20:07;53.22;52.16;54.27;;
48148;Laerm;29352;48.708;9.290;2022-09-09T14:22:34;53.22;51.75;54.15;;
48148;Laerm;29352;48.708;9.290;2022-09-09T14:25:00;53.19;51.89;54.11;;
48148;Laerm;29352;48.708;9.290;2022-09-09T14:27:26;53.10;51.61;54.27;;
48148;Laerm;29352;48.708;9.290;2022-09-09T14:29:52;53.04;51.89;54.03;;
48148;Laerm;29352;48.708;9.290;2022-09-09T14:32:18;53.03;51.46;54.03;;
48148;Laerm;29352;48.708;9.290;2022-09-09T14:34:43;53.03;51.89;54.03;;
48148;Laerm;29352;48.708;9.290;2022-09-09T14:37:08;53.02;51.75;53.99;;
48148;Laerm;29352;48.708;9.290;2022-09-09T14:39:34;53.02;51.96;53.99;;
48148;Laerm;29352;48.708;9.290;2022-09-09T14:41:59;53.04;51.82;53.99;;
48148;Laerm;29352;48.708;9.290;2022-09-09T14:44:24;53.02;51.89;54.15;;
48148;Laerm;29352;48.708;9.290;2022-09-09T14:46:50;53.06;52.03;54.15;;
48148;Laerm;29352;48.708;9.290;2022-09-09T14:49:16;53.13;52.03;54.07;;
48148;Laerm;29352;48.708;9.290;2022-09-09T14:51:42;53.14;52.03;54.23;;
48148;Laerm;29352;48.708;9.290;2022-09-09T14:54:07;53.15;52.09;54.11;;
48148;Laerm;29352;48.708;9.290;2022-09-09T14:56:34;53.13;51.96;54.23;;
48148;Laerm;29352;48.708;9.290;2022-09-09T14:59:00;53.14;52.03;54.23;;
48148;Laerm;29352;48.708;9.290;2022-09-09T15:01:27;53.13;52.03;54.11;;
48148;Laerm;29352;48.708;9.290;2022-09-09T15:04:00;53.12;51.96;54.19;;
48148;Laerm;29352;48.708;9.290;2022-09-09T15:06:30;53.11;52.03;55.39;;
48148;Laerm;29352;48.708;9.290;2022-09-09T15:08:57;53.11;51.89;54.03;;
48148;Laerm;29352;48.708;9.290;2022-09-09T15:11:36;53.12;51.75;54.19;;
48148;Laerm;29352;48.708;9.290;2022-09-09T15:14:08;53.10;51.89;57.06;;
48148;Laerm;29352;48.708;9.290;2022-09-09T15:16:35;53.07;51.96;54.27;;
48148;Laerm;29352;48.708;9.290;2022-09-09T15:19:02;53.07;51.82;54.27;;
48148;Laerm;29352;48.708;9.290;2022-09-09T15:21:32;53.07;51.82;54.15;;
48148;Laerm;29352;48.708;9.290;2022-09-09T15:23:58;53.04;51.89;54.15;;
48148;Laerm;29352;48.708;9.290;2022-09-09T15:26:25;53.03;51.96;53.94;;
48148;Laerm;29352;48.708;9.290;2022-09-09T15:28:51;53.05;51.96;54.15;;
48148;Laerm;29352;48.708;9.290;2022-09-09T15:31:21;53.05;52.00;54.07;;
48148;Laerm;29352;48.708;9.290;2022-09-09T15:33:56;53.08;51.89;54.11;;
48148;Laerm;29352;48.708;9.290;2022-09-09T15:36:35;53.08;51.96;54.35;;
48148;Laerm;29352;48.708;9.290;2022-09-09T15:39:05;53.09;52.03;54.27;;
48148;Laerm;29352;48.708;9.290;2022-09-09T15:41:31;53.06;51.82;54.07;;
48148;Laerm;29352;48.708;9.290;2022-09-09T15:43:58;53.01;51.96;54.03;;
48148;Laerm;29352;48.708;9.290;2022-09-09T15:46:45;52.97;51.89;54.03;;
48148;Laerm;29352;48.708;9.290;2022-09-09T15:49:22;52.96;51.75;53.93;;
48148;Laerm;29352;48.708;9.290;2022-09-09T15:51:59;52.95;51.75;53.94;;
48148;Laerm;29352;48.708;9.290;2022-09-09T15:54:33;52.96;51.89;54.16;;
48148;Laerm;29352;48.708;9.290;2022-09-09T15:57:03;52.93;51.89;53.90;;